createdAt,value
2023-03-26T00:01:55.248Z,60.84
2023-03-26T00:03:58.288Z,60.41
2023-03-26T00:06:10.663Z,60.17
2023-03-26T00:08:13.700Z,60.34
2023-03-26T00:10:16.468Z,60.77
2023-03-26T00:12:19.144Z,60.03
2023-03-26T00:14:21.793Z,61.39
2023-03-26T00:16:30.108Z,61.68
2023-03-26T00:18:35.230Z,61.21
2023-03-26T00:20:38.797Z,60.82
2023-03-26T00:22:42.082Z,61.63
2023-03-26T00:24:48.678Z,61.30
2023-03-26T00:26:53.720Z,61.20
2023-03-26T00:28:56.502Z,61.72
2023-03-26T00:31:03.894Z,61.41
2023-03-26T00:33:08.268Z,61.05
2023-03-26T00:35:11.256Z,61.16
2023-03-26T00:37:15.515Z,60.96
2023-03-26T00:39:18.085Z,61.14
2023-03-26T00:41:31.368Z,61.10
2023-03-26T00:43:36.903Z,61.16
2023-03-26T00:45:39.478Z,60.29
2023-03-26T00:47:44.565Z,61.02
2023-03-26T00:49:49.182Z,61.38
2023-03-26T00:51:51.739Z,61.24
2023-03-26T00:53:54.606Z,61.41
2023-03-26T00:56:00.601Z,61.17
2023-03-26T00:58:03.305Z,61.28
2023-03-26T01:00:10.844Z,61.38
2023-03-26T01:02:19.036Z,61.43
2023-03-26T01:04:31.205Z,61.31
2023-03-26T01:06:38.160Z,61.45
2023-03-26T01:08:48.504Z,61.63
2023-03-26T01:10:53.395Z,62.12
2023-03-26T01:12:55.975Z,62.29
2023-03-26T01:15:01.826Z,62.55
2023-03-26T01:17:07.248Z,62.48
2023-03-26T01:19:38.484Z,62.44
2023-03-26T01:21:41.302Z,62.65
2023-03-26T01:23:49.775Z,62.56
2023-03-26T01:26:10.511Z,62.45
2023-03-26T01:28:14.453Z,62.47
2023-03-26T01:30:37.777Z,62.18
2023-03-26T01:32:40.386Z,63.14
2023-03-26T01:34:42.773Z,63.16
2023-03-26T01:36:54.001Z,63.35
2023-03-26T01:39:10.293Z,63.75
2023-03-26T01:41:23.018Z,63.33
2023-03-26T01:43:39.990Z,63.53
2023-03-26T01:45:47.698Z,63.46
2023-03-26T01:47:51.261Z,62.98
2023-03-26T01:49:53.820Z,63.02
2023-03-26T01:51:58.365Z,62.34
2023-03-26T01:54:04.533Z,62.81
2023-03-26T01:56:19.530Z,62.00
2023-03-26T01:58:41.793Z,62.61
2023-03-26T02:01:13.886Z,62.66
2023-03-26T02:03:31.317Z,62.30
2023-03-26T02:05:34.175Z,62.06
2023-03-26T02:07:52.874Z,62.44
2023-03-26T02:10:00.418Z,62.69
2023-03-26T02:12:04.989Z,62.06
2023-03-26T02:14:08.817Z,62.53
2023-03-26T02:16:14.825Z,61.94
2023-03-26T02:18:17.469Z,62.57
2023-03-26T02:20:21.911Z,61.76
2023-03-26T02:22:30.171Z,62.40
2023-03-26T02:24:34.850Z,61.93
2023-03-26T02:26:38.154Z,62.34
2023-03-26T02:28:46.649Z,63.10
2023-03-26T02:30:50.949Z,63.07
2023-03-26T02:32:54.648Z,62.96
2023-03-26T02:34:58.968Z,62.56
2023-03-26T02:37:01.937Z,62.71
2023-03-26T02:39:05.116Z,62.79
2023-03-26T02:41:11.411Z,62.35
2023-03-26T02:43:29.182Z,62.36
2023-03-26T02:45:32.527Z,62.52
2023-03-26T02:47:38.059Z,62.41
2023-03-26T02:50:09.985Z,61.69
2023-03-26T02:52:26.468Z,62.03
2023-03-26T02:54:33.807Z,61.53
2023-03-26T02:56:57.065Z,61.38
2023-03-26T02:59:19.618Z,60.90
2023-03-26T03:01:27.210Z,61.52
2023-03-26T03:03:30.776Z,61.77
2023-03-26T03:05:38.280Z,61.14
2023-03-26T03:08:04.648Z,61.32
2023-03-26T03:10:14.060Z,61.10
2023-03-26T03:12:46.128Z,60.95
2023-03-26T03:14:48.819Z,60.98
2023-03-26T03:16:51.869Z,60.13
2023-03-26T03:18:57.899Z,61.17
2023-03-26T03:21:09.947Z,61.24
2023-03-26T03:23:13.430Z,61.35
2023-03-26T03:25:17.769Z,61.22
2023-03-26T03:27:23.995Z,61.09
2023-03-26T03:29:33.522Z,60.51
2023-03-26T03:31:56.467Z,60.54
2023-03-26T03:34:13.383Z,60.22
2023-03-26T03:36:23.646Z,60.22
2023-03-26T03:38:35.151Z,60.24
2023-03-26T03:40:37.775Z,60.51
2023-03-26T03:42:40.471Z,60.79
2023-03-26T03:44:44.963Z,60.69
2023-03-26T03:47:07.247Z,60.84
2023-03-26T03:49:09.686Z,60.59
2023-03-26T03:51:13.842Z,60.09
2023-03-26T03:53:26.369Z,60.18
2023-03-26T03:55:31.194Z,60.46
2023-03-26T03:57:34.934Z,60.84
2023-03-26T03:59:47.615Z,60.06
2023-03-26T04:01:51.222Z,60.58
2023-03-26T04:04:07.381Z,60.48
2023-03-26T04:06:30.456Z,60.34
2023-03-26T04:08:33.826Z,59.95
2023-03-26T04:10:36.454Z,60.71
2023-03-26T04:12:48.257Z,60.27
2023-03-26T04:14:53.213Z,60.36
2023-03-26T04:16:56.411Z,60.64
2023-03-26T04:19:02.697Z,60.01
2023-03-26T04:21:08.186Z,60.25
2023-03-26T04:23:14.551Z,60.44
2023-03-26T04:25:19.537Z,60.42
2023-03-26T04:27:37.408Z,60.26
2023-03-26T04:29:58.752Z,60.27
2023-03-26T04:32:06.873Z,60.55
2023-03-26T04:34:20.671Z,60.13
2023-03-26T04:36:35.942Z,60.39
2023-03-26T04:38:43.234Z,59.73
2023-03-26T04:40:47.641Z,60.28
2023-03-26T04:43:05.271Z,60.72
2023-03-26T04:45:35.488Z,60.19
2023-03-26T04:47:39.341Z,60.36
2023-03-26T04:49:43.100Z,60.72
2023-03-26T04:51:47.374Z,60.55
2023-03-26T04:54:21.614Z,60.73
2023-03-26T04:56:53.624Z,60.70
2023-03-26T04:59:08.425Z,61.06
2023-03-26T05:01:16.962Z,61.08
2023-03-26T05:03:21.427Z,61.40
2023-03-26T05:05:27.252Z,61.30
2023-03-26T05:07:30.571Z,62.33
2023-03-26T05:09:37.139Z,61.25
2023-03-26T05:11:58.645Z,61.71
2023-03-26T05:14:01.117Z,62.07
2023-03-26T05:16:04.482Z,61.36
2023-03-26T05:18:11.686Z,61.84
2023-03-26T05:20:27.442Z,61.39
2023-03-26T05:22:30.157Z,61.56
2023-03-26T05:24:59.260Z,61.67
2023-03-26T05:27:02.190Z,61.87
2023-03-26T05:29:05.368Z,61.16
2023-03-26T05:31:11.463Z,61.00
2023-03-26T05:33:18.619Z,61.56
2023-03-26T05:35:26.608Z,62.08
2023-03-26T05:37:31.720Z,61.69
2023-03-26T05:39:38.954Z,62.64
2023-03-26T05:42:10.671Z,61.91
2023-03-26T05:44:31.715Z,61.68
2023-03-26T05:46:39.529Z,61.26
2023-03-26T05:48:42.488Z,60.92
2023-03-26T05:50:53.462Z,61.09
2023-03-26T05:52:56.974Z,61.07
2023-03-26T05:55:37.972Z,61.21
2023-03-26T05:57:59.082Z,60.63
2023-03-26T06:00:20.074Z,60.02
2023-03-26T06:02:23.477Z,60.37
2023-03-26T06:04:46.676Z,60.72
2023-03-26T06:07:12.922Z,60.42
2023-03-26T06:09:20.034Z,60.85
2023-03-26T06:11:22.520Z,59.99
2023-03-26T06:13:25.299Z,59.91
2023-03-26T06:15:27.961Z,60.49
2023-03-26T06:17:41.727Z,60.09
2023-03-26T06:20:13.222Z,60.28
2023-03-26T06:22:18.186Z,59.56
2023-03-26T06:24:43.639Z,60.11
2023-03-26T06:27:15.597Z,59.67
2023-03-26T06:29:23.754Z,60.29
2023-03-26T06:31:53.603Z,59.47
2023-03-26T06:34:10.358Z,59.85
2023-03-26T06:36:12.693Z,59.61
2023-03-26T06:38:15.916Z,59.85
2023-03-26T06:40:18.929Z,59.55
2023-03-26T06:43:08.530Z,59.15
2023-03-26T06:45:34.114Z,59.34
2023-03-26T06:47:55.810Z,57.86
2023-03-26T06:50:15.809Z,58.81
2023-03-26T06:52:57.293Z,58.84
2023-03-26T06:55:31.984Z,57.52
2023-03-26T06:58:00.893Z,58.13
2023-03-26T07:00:39.212Z,58.39
2023-03-26T07:03:00.569Z,58.72
2023-03-26T07:05:26.795Z,59.32
2023-03-26T07:07:48.875Z,57.84
2023-03-26T07:09:57.750Z,58.12
2023-03-26T07:12:15.970Z,57.68
2023-03-26T07:14:47.622Z,57.73
2023-03-26T07:17:13.485Z,56.92
2023-03-26T07:19:42.217Z,57.34
2023-03-26T07:21:46.968Z,57.12
2023-03-26T07:24:06.461Z,57.43
2023-03-26T07:27:11.270Z,57.60
2023-03-26T07:29:39.572Z,57.86
2023-03-26T07:32:07.809Z,58.10
2023-03-26T07:35:13.863Z,57.58
2023-03-26T07:37:50.747Z,57.42
2023-03-26T07:40:26.210Z,58.51
2023-03-26T07:43:12.289Z,58.12
2023-03-26T07:45:44.406Z,57.62
2023-03-26T07:48:18.403Z,58.56
2023-03-26T07:50:37.201Z,59.24
2023-03-26T07:52:46.819Z,58.33
2023-03-26T07:55:05.779Z,57.77
2023-03-26T07:57:32.787Z,57.08
2023-03-26T08:00:18.094Z,56.52
2023-03-26T08:02:51.950Z,55.84
2023-03-26T08:08:34.812Z,56.46
2023-03-26T08:11:27.281Z,56.17
2023-03-26T08:14:01.270Z,56.00
2023-03-26T08:16:16.097Z,56.14
2023-03-26T08:18:47.136Z,55.94
2023-03-26T08:20:54.768Z,56.39
2023-03-26T08:23:17.758Z,56.20
2023-03-26T08:25:35.583Z,56.00
2023-03-26T08:27:44.281Z,56.31
2023-03-26T08:30:02.143Z,56.76
2023-03-26T08:32:09.035Z,56.94
2023-03-26T08:34:13.752Z,56.71
2023-03-26T08:36:17.042Z,56.66
2023-03-26T08:38:21.230Z,55.34
2023-03-26T08:40:58.346Z,54.78
2023-03-26T08:43:38.017Z,54.79
2023-03-26T08:46:17.061Z,55.22
2023-03-26T08:48:47.429Z,55.52
2023-03-26T08:50:59.411Z,55.44
2023-03-26T08:53:20.967Z,55.32
2023-03-26T08:55:52.253Z,54.73
2023-03-26T08:58:32.254Z,56.05
2023-03-26T09:00:52.124Z,55.40
2023-03-26T09:03:13.268Z,55.75
2023-03-26T09:05:15.716Z,55.78
2023-03-26T09:07:47.546Z,54.50
2023-03-26T09:10:02.418Z,54.20
2023-03-26T09:12:41.726Z,54.05
2023-03-26T09:15:03.851Z,54.06
2023-03-26T09:17:26.290Z,55.77
2023-03-26T09:19:42.888Z,55.11
2023-03-26T09:21:57.956Z,54.51
2023-03-26T09:24:28.634Z,54.29
2023-03-26T09:26:51.505Z,55.43
2023-03-26T09:29:03.967Z,54.03
2023-03-26T09:31:28.167Z,53.98
2023-03-26T09:33:54.334Z,52.44
2023-03-26T09:36:11.537Z,51.67
2023-03-26T09:38:23.736Z,52.09
2023-03-26T09:40:46.214Z,51.76
2023-03-26T09:43:10.690Z,51.15
2023-03-26T09:46:10.400Z,51.40
2023-03-26T09:48:28.263Z,53.07
2023-03-26T09:50:58.044Z,51.04
2023-03-26T09:53:34.737Z,51.35
2023-03-26T09:55:43.388Z,52.17
2023-03-26T09:58:04.982Z,51.45
2023-03-26T10:00:28.898Z,50.78
2023-03-26T10:02:50.690Z,50.22
2023-03-26T10:04:56.726Z,50.33
2023-03-26T10:07:26.298Z,49.69
2023-03-26T10:09:52.024Z,49.48
2023-03-26T10:12:16.459Z,50.63
2023-03-26T10:14:23.356Z,51.58
2023-03-26T10:16:44.273Z,51.95
2023-03-26T10:18:52.464Z,53.35
2023-03-26T10:21:07.713Z,53.83
2023-03-26T10:23:16.599Z,53.24
2023-03-26T10:25:26.770Z,54.99
2023-03-26T10:28:16.617Z,53.63
2023-03-26T10:30:36.868Z,54.94
2023-03-26T10:33:03.053Z,54.60
2023-03-26T10:35:31.271Z,54.08
2023-03-26T10:37:54.774Z,54.00
2023-03-26T10:40:28.576Z,51.96
2023-03-26T10:42:49.883Z,52.79
2023-03-26T10:45:08.460Z,54.63
2023-03-26T10:47:28.970Z,55.59
2023-03-26T10:49:55.745Z,56.66
2023-03-26T10:52:21.131Z,57.35
2023-03-26T10:54:50.897Z,57.18
2023-03-26T10:56:56.922Z,57.37
2023-03-26T10:59:06.203Z,54.61
2023-03-26T11:01:22.902Z,53.21
2023-03-26T11:03:44.638Z,53.47
2023-03-26T11:05:50.752Z,53.66
2023-03-26T11:08:07.394Z,52.24
2023-03-26T11:10:18.002Z,51.78
2023-03-26T11:12:41.782Z,50.65
2023-03-26T11:15:11.052Z,51.15
2023-03-26T11:17:41.546Z,51.42
2023-03-26T11:19:57.094Z,51.42
2023-03-26T11:22:03.056Z,50.67
2023-03-26T11:24:28.384Z,50.06
2023-03-26T11:27:17.499Z,49.91
2023-03-26T11:29:46.782Z,48.40
2023-03-26T11:32:00.626Z,49.79
2023-03-26T11:34:16.883Z,50.83
2023-03-26T11:36:43.328Z,49.45
2023-03-26T11:38:49.737Z,49.62
2023-03-26T11:40:59.592Z,49.46
2023-03-26T11:43:30.365Z,47.36
2023-03-26T11:45:38.958Z,46.89
2023-03-26T11:47:48.469Z,46.98
2023-03-26T11:49:55.861Z,47.41
2023-03-26T11:51:59.540Z,48.00
2023-03-26T11:54:04.672Z,48.46
2023-03-26T11:56:18.721Z,48.20
2023-03-26T11:58:31.666Z,48.86
2023-03-26T12:00:34.920Z,48.24
2023-03-26T12:02:42.253Z,49.28
2023-03-26T12:04:51.378Z,49.49
2023-03-26T12:07:34.076Z,51.69
2023-03-26T12:09:37.022Z,54.04
2023-03-26T12:11:39.907Z,55.65
2023-03-26T12:13:53.864Z,56.00
2023-03-26T12:16:19.399Z,56.34
2023-03-26T12:18:27.162Z,56.34
2023-03-26T12:20:33.980Z,56.80
2023-03-26T12:22:38.189Z,56.22
2023-03-26T12:24:41.340Z,56.14
2023-03-26T12:26:49.630Z,56.56
2023-03-26T12:28:52.751Z,56.78
2023-03-26T12:31:08.085Z,57.32
2023-03-26T12:33:30.166Z,57.81
2023-03-26T12:35:35.861Z,58.58
2023-03-26T12:37:42.798Z,57.65
2023-03-26T12:40:09.886Z,56.95
2023-03-26T12:44:51.044Z,56.85
2023-03-26T12:44:58.848Z,55.97
2023-03-26T12:47:57.927Z,55.10
2023-03-26T12:49:43.336Z,55.13
2023-03-26T12:51:53.641Z,55.67
2023-03-26T12:54:17.631Z,55.31
2023-03-26T12:59:47.206Z,55.15
2023-03-26T13:02:08.187Z,55.07
2023-03-26T13:02:24.103Z,55.65
2023-03-26T13:04:34.486Z,56.19
2023-03-26T13:07:00.653Z,55.14
2023-03-26T13:09:25.739Z,55.45
2023-03-26T13:11:54.219Z,53.06
2023-03-26T13:14:15.252Z,52.72
2023-03-26T13:16:30.216Z,51.91
2023-03-26T13:18:56.019Z,50.06
2023-03-26T13:21:11.805Z,50.69
2023-03-26T13:23:38.912Z,50.59
2023-03-26T13:26:00.014Z,48.91
2023-03-26T13:28:17.657Z,49.46
2023-03-26T13:30:37.420Z,50.05
2023-03-26T13:33:12.786Z,50.21
2023-03-26T13:35:50.377Z,50.30
2023-03-26T13:38:02.546Z,50.04
2023-03-26T13:40:25.250Z,49.27
2023-03-26T13:42:59.601Z,48.83
2023-03-26T13:45:10.352Z,48.84
2023-03-26T13:47:49.181Z,49.84
2023-03-26T13:49:59.138Z,49.38
2023-03-26T13:52:23.358Z,50.31
2023-03-26T13:54:34.937Z,48.52
2023-03-26T13:56:43.962Z,47.86
2023-03-26T13:59:02.682Z,48.13
2023-03-26T14:01:17.028Z,47.32
2023-03-26T14:03:43.347Z,48.10
2023-03-26T14:05:51.292Z,48.33
2023-03-26T14:07:58.753Z,48.36
2023-03-26T14:10:10.492Z,48.60
2023-03-26T14:12:49.389Z,48.08
2023-03-26T14:14:54.408Z,48.07
2023-03-26T14:17:03.392Z,47.92
2023-03-26T14:19:27.898Z,48.21
2023-03-26T14:21:34.360Z,48.45
2023-03-26T14:24:09.668Z,48.29
2023-03-26T14:26:30.523Z,48.54
2023-03-26T14:28:41.935Z,47.40
2023-03-26T14:30:56.851Z,48.03
2023-03-26T14:33:27.486Z,47.97
2023-03-26T14:35:43.693Z,47.36
2023-03-26T14:38:04.518Z,47.46
2023-03-26T14:40:26.212Z,47.18
2023-03-26T14:42:42.686Z,47.48
2023-03-26T14:45:17.512Z,46.46
2023-03-26T14:47:22.827Z,46.41
2023-03-26T14:49:46.311Z,47.37
2023-03-26T14:52:21.490Z,46.50
2023-03-26T14:54:28.688Z,46.76
2023-03-26T14:56:34.007Z,47.43
2023-03-26T14:58:57.693Z,47.16
2023-03-26T15:01:28.678Z,46.78
2023-03-26T15:04:03.314Z,48.27
2023-03-26T15:06:39.634Z,49.24
2023-03-26T15:09:13.542Z,49.74
2023-03-26T15:11:27.578Z,49.80
2023-03-26T15:13:42.568Z,49.07
2023-03-26T15:16:06.728Z,49.48
2023-03-26T15:18:25.923Z,49.03
2023-03-26T15:20:56.158Z,49.24
2023-03-26T15:23:26.517Z,49.12
2023-03-26T15:25:41.272Z,50.07
2023-03-26T15:28:22.849Z,49.81
2023-03-26T15:31:07.097Z,48.49
2023-03-26T15:33:35.304Z,48.62
2023-03-26T15:35:43.927Z,48.99
2023-03-26T15:38:24.807Z,48.99
2023-03-26T15:40:48.250Z,48.75
2023-03-26T15:43:11.658Z,49.02
2023-03-26T15:45:41.742Z,49.52
2023-03-26T15:48:15.621Z,49.59
2023-03-26T15:51:46.206Z,49.58
2023-03-26T15:53:59.676Z,49.30
2023-03-26T15:56:18.234Z,48.43
2023-03-26T15:58:26.921Z,48.81
2023-03-26T16:00:34.793Z,51.98
2023-03-26T16:02:44.079Z,53.45
2023-03-26T16:05:17.144Z,54.11
2023-03-26T16:07:53.473Z,54.20
2023-03-26T16:10:22.931Z,53.00
2023-03-26T16:13:00.167Z,53.00
2023-03-26T16:15:36.268Z,52.20
2023-03-26T16:18:19.867Z,51.96
2023-03-26T16:20:33.468Z,51.70
2023-03-26T16:22:58.351Z,52.63
2023-03-26T16:25:29.220Z,53.48
2023-03-26T16:27:34.799Z,53.37
2023-03-26T16:30:08.472Z,53.42
2023-03-26T16:32:29.624Z,54.01
2023-03-26T16:35:01.034Z,54.21
2023-03-26T16:37:09.864Z,54.63
2023-03-26T16:39:19.966Z,53.69
2023-03-26T16:41:31.370Z,55.73
2023-03-26T16:43:52.002Z,55.76
2023-03-26T16:46:14.266Z,57.50
2023-03-26T16:48:36.485Z,57.39
2023-03-26T16:50:57.354Z,56.85
2023-03-26T16:53:34.999Z,55.97
2023-03-26T16:55:53.810Z,55.16
2023-03-26T16:58:14.920Z,55.13
2023-03-26T17:00:26.560Z,54.89
2023-03-26T17:02:42.018Z,55.04
2023-03-26T17:04:49.127Z,55.17
2023-03-26T17:07:30.595Z,54.52
2023-03-26T17:10:20.457Z,52.93
2023-03-26T17:12:56.161Z,52.38
2023-03-26T17:15:19.517Z,52.43
2023-03-26T17:17:53.000Z,52.58
2023-03-26T17:20:35.298Z,53.57
2023-03-26T17:22:50.679Z,52.47
2023-03-26T17:25:21.808Z,52.46
2023-03-26T17:28:09.438Z,53.04
2023-03-26T17:30:44.874Z,52.96
2023-03-26T17:33:29.149Z,54.15
2023-03-26T17:35:38.281Z,54.94
2023-03-26T17:37:48.120Z,55.79
2023-03-26T17:39:51.536Z,55.82
2023-03-26T17:42:03.756Z,56.31
2023-03-26T17:44:37.132Z,56.13
2023-03-26T17:46:45.987Z,56.65
2023-03-26T17:49:19.747Z,56.56
2023-03-26T17:51:38.872Z,56.94
2023-03-26T17:53:43.034Z,55.94
2023-03-26T17:55:51.194Z,57.06
2023-03-26T17:57:59.445Z,57.23
2023-03-26T18:00:07.958Z,56.89
2023-03-26T18:02:21.286Z,57.90
2023-03-26T18:04:40.386Z,57.41
2023-03-26T18:07:20.097Z,57.20
2023-03-26T18:09:29.145Z,58.59
2023-03-26T18:11:59.105Z,58.19
2023-03-26T18:14:27.466Z,57.24
2023-03-26T18:16:33.757Z,56.91
2023-03-26T18:18:46.551Z,56.68
2023-03-26T18:20:51.428Z,56.52
2023-03-26T18:22:54.943Z,56.51
2023-03-26T18:25:01.353Z,56.68
2023-03-26T18:27:13.371Z,56.59
2023-03-26T18:29:31.515Z,56.70
2023-03-26T18:31:42.234Z,56.83
2023-03-26T18:33:47.964Z,56.83
2023-03-26T18:35:56.846Z,57.07
2023-03-26T18:38:00.449Z,57.30
2023-03-26T18:40:16.117Z,56.79
2023-03-26T18:42:25.205Z,56.17
2023-03-26T18:44:36.492Z,57.14
2023-03-26T18:46:39.226Z,57.36
2023-03-26T18:48:44.848Z,57.48
2023-03-26T18:50:53.795Z,57.28
2023-03-26T18:53:00.638Z,57.62
2023-03-26T18:55:04.212Z,57.99
2023-03-26T18:57:15.990Z,58.77
2023-03-26T18:59:35.497Z,58.14
2023-03-26T19:01:47.304Z,58.50
2023-03-26T19:03:50.821Z,59.13
2023-03-26T19:05:57.050Z,59.27
2023-03-26T19:08:04.217Z,58.71
2023-03-26T19:10:08.466Z,58.71
2023-03-26T19:12:43.238Z,58.82
2023-03-26T19:15:09.012Z,59.40
2023-03-26T19:17:12.315Z,59.53
2023-03-26T19:19:23.470Z,59.60
2023-03-26T19:21:26.689Z,59.26
2023-03-26T19:23:42.007Z,59.95
2023-03-26T19:25:55.162Z,59.64
2023-03-26T19:27:59.770Z,59.62
2023-03-26T19:30:03.950Z,59.61
2023-03-26T19:32:18.674Z,59.96
2023-03-26T19:34:39.212Z,60.03
2023-03-26T19:37:02.268Z,59.90
2023-03-26T19:39:14.660Z,59.93
2023-03-26T19:41:42.781Z,58.90
2023-03-26T19:43:53.407Z,59.44
2023-03-26T19:46:02.381Z,59.47
2023-03-26T19:48:15.562Z,59.97
2023-03-26T19:50:23.840Z,59.61
2023-03-26T19:52:36.535Z,60.24
2023-03-26T19:55:03.099Z,59.58
2023-03-26T19:57:06.034Z,60.63
2023-03-26T19:59:09.169Z,60.87
2023-03-26T20:01:32.530Z,60.19
2023-03-26T20:03:43.125Z,60.57
2023-03-26T20:05:46.805Z,60.26
2023-03-26T20:07:53.716Z,60.29
2023-03-26T20:09:57.113Z,60.89
2023-03-26T20:12:01.314Z,60.50
2023-03-26T20:14:18.463Z,60.50
2023-03-26T20:16:27.530Z,60.48
2023-03-26T20:18:30.428Z,60.32
2023-03-26T20:20:34.838Z,60.21
2023-03-26T20:22:38.032Z,60.73
2023-03-26T20:24:45.301Z,60.89
2023-03-26T20:26:48.831Z,60.08
2023-03-26T20:28:53.376Z,60.74
2023-03-26T20:30:57.356Z,60.85
2023-03-26T20:33:12.143Z,60.96
2023-03-26T20:35:20.899Z,60.49
2023-03-26T20:37:40.249Z,61.01
2023-03-26T20:39:46.677Z,60.70
2023-03-26T20:41:50.797Z,60.79
2023-03-26T20:43:54.032Z,60.92
2023-03-26T20:45:59.426Z,61.08
2023-03-26T20:48:03.184Z,61.74
2023-03-26T20:50:07.034Z,60.92
2023-03-26T20:52:13.867Z,61.03
2023-03-26T20:54:18.473Z,61.64
2023-03-26T20:56:23.818Z,60.96
2023-03-26T20:58:31.507Z,60.99
2023-03-26T21:00:35.084Z,60.84
2023-03-26T21:02:39.237Z,61.05
2023-03-26T21:04:43.574Z,61.14
2023-03-26T21:06:46.366Z,61.22
2023-03-26T21:08:49.322Z,60.76
2023-03-26T21:10:52.212Z,61.19
2023-03-26T21:13:06.402Z,61.82
2023-03-26T21:15:22.482Z,60.91
2023-03-26T21:17:27.455Z,61.69
2023-03-26T21:19:30.743Z,61.73
2023-03-26T21:21:46.539Z,61.32
2023-03-26T21:24:19.083Z,60.99
2023-03-26T21:26:41.628Z,61.25
2023-03-26T21:28:48.208Z,61.23
2023-03-26T21:30:51.444Z,60.92
2023-03-26T21:32:54.885Z,61.58
2023-03-26T21:34:59.506Z,61.59
2023-03-26T21:37:05.168Z,61.41
2023-03-26T21:39:08.343Z,61.03
2023-03-26T21:41:31.666Z,61.06
2023-03-26T21:43:34.516Z,61.82
2023-03-26T21:45:39.069Z,61.70
2023-03-26T21:47:43.324Z,61.62
2023-03-26T21:49:46.247Z,61.54
2023-03-26T21:51:49.269Z,61.73
2023-03-26T21:53:53.161Z,62.95
2023-03-26T21:56:26.108Z,62.63
2023-03-26T21:59:02.842Z,64.16
2023-03-26T22:01:08.645Z,63.94
2023-03-26T22:03:40.425Z,64.71
2023-03-26T22:06:07.539Z,64.72
2023-03-26T22:08:30.876Z,63.42
2023-03-26T22:10:33.614Z,63.28
2023-03-26T22:12:37.519Z,63.89
2023-03-26T22:14:41.423Z,63.36
2023-03-26T22:16:44.444Z,62.60
2023-03-26T22:18:48.897Z,63.05
2023-03-26T22:20:52.105Z,63.34
2023-03-26T22:22:55.423Z,62.23
2023-03-26T22:24:58.193Z,62.88
2023-03-26T22:27:04.032Z,62.75
2023-03-26T22:29:06.934Z,62.65
2023-03-26T22:31:10.048Z,62.21
2023-03-26T22:33:13.098Z,63.16
2023-03-26T22:35:16.407Z,62.59
2023-03-26T22:37:20.442Z,62.50
2023-03-26T22:39:23.338Z,63.93
2023-03-26T22:41:26.224Z,63.46
2023-03-26T22:43:28.978Z,64.06
2023-03-26T22:45:31.710Z,63.74
2023-03-26T22:47:35.765Z,64.10
2023-03-26T22:49:40.521Z,64.09
2023-03-26T22:51:46.290Z,63.39
2023-03-26T22:53:49.740Z,63.43
2023-03-26T22:55:53.040Z,63.73
2023-03-26T22:57:55.874Z,62.95
2023-03-26T23:00:13.047Z,63.83
2023-03-26T23:02:17.680Z,63.78
2023-03-26T23:04:30.904Z,63.66
2023-03-26T23:06:34.852Z,63.53
2023-03-26T23:08:39.290Z,63.57
2023-03-26T23:10:43.060Z,63.44
2023-03-26T23:12:45.874Z,63.65
2023-03-26T23:14:52.589Z,63.44
2023-03-26T23:16:55.875Z,63.22
2023-03-26T23:19:00.442Z,63.03
2023-03-26T23:21:04.252Z,63.42
2023-03-26T23:23:14.915Z,63.77
2023-03-26T23:25:19.301Z,63.49
2023-03-26T23:27:22.792Z,63.64
2023-03-26T23:29:25.555Z,63.56
2023-03-26T23:31:29.095Z,64.27
2023-03-26T23:33:35.606Z,63.70
2023-03-26T23:35:38.269Z,63.50
2023-03-26T23:37:42.747Z,64.24
2023-03-26T23:39:47.104Z,64.53
2023-03-26T23:41:52.331Z,64.81
2023-03-26T23:44:40.305Z,64.77
2023-03-26T23:47:06.103Z,64.56
2023-03-26T23:49:36.048Z,65.25
2023-03-26T23:51:43.910Z,65.55
2023-03-26T23:54:52.585Z,65.61
2023-03-26T23:57:11.036Z,65.19
2023-03-26T23:59:19.894Z,65.84
